Time;durP1;ratioP1;P1;durP2;ratioP2;P2;SDS_P1;SDS_P2;PMS_P1;PMS_P2;Temp;Humidity;BMP_temperature;BMP_pressure;BME280_temperature;BME280_humidity;BME280_pressure;Samples;Min_cycle;Max_cycle;Signal;HPM_P1;HPM_P2
2024/03/09 00:00:21;;;;;;;15.37;8.60;;;;;;;2.49;100.00;97114.72;4980354;28;20235;-82
2024/03/09 00:02:49;;;;;;;14.47;7.77;;;;;;;2.45;100.00;97112.38;4987183;28;20215;-81
2024/03/09 00:05:19;;;;;;;11.13;7.13;;;;;;;2.36;100.00;97107.63;4992730;28;20283;-82
2024/03/09 00:07:46;;;;;;;12.27;7.47;;;;;;;2.28;100.00;97109.81;4992566;28;20211;-82
2024/03/09 00:10:12;;;;;;;14.23;7.40;;;;;;;2.26;100.00;97115.09;4991751;28;20237;-82
2024/03/09 00:12:40;;;;;;;14.90;8.80;;;;;;;2.27;100.00;97123.78;4991873;28;20285;-82
2024/03/09 00:15:11;;;;;;;12.63;7.00;;;;;;;2.26;100.00;97120.31;4992246;28;20216;-82
2024/03/09 00:17:41;;;;;;;13.97;7.57;;;;;;;2.28;100.00;97121.06;4992003;28;20220;-82
2024/03/09 00:20:12;;;;;;;12.93;8.20;;;;;;;2.30;100.00;97114.03;4991475;28;20208;-82
2024/03/09 00:22:40;;;;;;;12.10;7.53;;;;;;;2.28;100.00;97120.22;4991982;28;20239;-82
2024/03/09 00:25:08;;;;;;;14.43;7.67;;;;;;;2.28;100.00;97110.63;4992477;28;20269;-82
2024/03/09 00:27:35;;;;;;;13.47;7.93;;;;;;;2.24;100.00;97116.09;4991773;28;20204;-82
2024/03/09 00:30:02;;;;;;;14.67;8.10;;;;;;;2.29;100.00;97112.34;4991020;28;20234;-82
2024/03/09 00:32:29;;;;;;;15.97;9.03;;;;;;;2.33;100.00;97119.06;4991972;28;20230;-83
2024/03/09 00:34:55;;;;;;;14.57;7.67;;;;;;;2.36;100.00;97116.31;4991643;28;20236;-82
2024/03/09 00:37:22;;;;;;;14.00;8.33;;;;;;;2.37;100.00;97120.59;4992008;28;20212;-81
2024/03/09 00:39:50;;;;;;;14.30;8.50;;;;;;;2.34;100.00;97120.72;4991437;28;20212;-82
2024/03/09 00:42:19;;;;;;;12.67;7.47;;;;;;;2.32;100.00;97122.59;4990028;28;20234;-81
2024/03/09 00:44:45;;;;;;;13.40;7.83;;;;;;;2.32;100.00;97116.56;4990333;28;20276;-82
2024/03/09 00:47:14;;;;;;;15.03;7.93;;;;;;;2.30;100.00;97118.38;4990399;28;20222;-80
2024/03/09 00:49:40;;;;;;;15.50;8.17;;;;;;;2.31;100.00;97123.53;4989705;28;20246;-81
2024/03/09 00:52:07;;;;;;;17.77;9.47;;;;;;;2.36;100.00;97115.44;4991041;28;20303;-80
2024/03/09 00:54:35;;;;;;;15.27;9.23;;;;;;;2.35;100.00;97119.84;4991899;28;20222;-81
2024/03/09 00:57:04;;;;;;;14.93;7.53;;;;;;;2.38;100.00;97111.84;4992422;28;20247;-81
2024/03/09 00:59:31;;;;;;;13.13;8.37;;;;;;;2.38;100.00;97105.81;5007796;28;20214;-82
2024/03/09 01:02:00;;;;;;;17.00;8.70;;;;;;;2.38;100.00;97090.16;4992225;28;20234;-80
2024/03/09 01:04:27;;;;;;;12.73;7.03;;;;;;;2.37;100.00;97094.50;4993542;28;20238;-79
2024/03/09 01:06:54;;;;;;;14.17;7.93;;;;;;;2.29;100.00;97081.06;4994463;28;20282;-79
2024/03/09 01:09:22;;;;;;;16.07;8.33;;;;;;;2.26;100.00;97086.41;4994003;28;20268;-79
2024/03/09 01:11:49;;;;;;;12.90;8.17;;;;;;;2.19;100.00;97079.84;4994193;28;20311;-80
2024/03/09 01:14:17;;;;;;;18.03;8.83;;;;;;;2.20;100.00;97075.50;4985582;28;20239;-78
2024/03/09 01:16:44;;;;;;;13.03;7.60;;;;;;;2.20;100.00;97075.50;4994369;28;20211;-80
2024/03/09 01:19:10;;;;;;;13.50;7.73;;;;;;;2.18;100.00;97072.97;4996442;28;20244;-81
2024/03/09 01:21:37;;;;;;;14.93;8.27;;;;;;;2.16;100.00;97077.41;4996604;28;20271;-81
2024/03/09 01:24:04;;;;;;;13.23;7.57;;;;;;;2.16;100.00;97069.59;4997714;28;20201;-81
2024/03/09 01:26:31;;;;;;;13.27;7.87;;;;;;;2.16;100.00;97072.22;4997733;28;20266;-82
2024/03/09 01:28:57;;;;;;;11.53;7.47;;;;;;;2.18;100.00;97085.13;4996553;28;20228;-81
2024/03/09 01:31:28;;;;;;;14.67;8.67;;;;;;;2.25;100.00;97089.09;4997338;28;20294;-81
2024/03/09 01:33:55;;;;;;;16.53;7.90;;;;;;;2.33;100.00;97094.78;4994315;28;20198;-79
2024/03/09 01:36:22;;;;;;;14.83;8.17;;;;;;;2.36;100.00;97090.22;4993881;28;20227;-82
2024/03/09 01:38:49;;;;;;;12.87;7.13;;;;;;;2.42;100.00;97089.91;4997407;28;20203;-81
2024/03/09 01:41:15;;;;;;;12.53;7.70;;;;;;;2.48;100.00;97097.41;4997116;28;20218;-81
2024/03/09 01:43:42;;;;;;;13.13;7.60;;;;;;;2.48;100.00;97096.53;4997805;28;20214;-81
2024/03/09 01:46:12;;;;;;;16.27;8.60;;;;;;;2.51;100.00;97099.81;4997825;28;20259;-81
2024/03/09 01:48:41;;;;;;;14.40;8.10;;;;;;;2.49;100.00;97091.25;4997493;28;20223;-81
2024/03/09 01:51:10;;;;;;;13.43;8.20;;;;;;;2.42;100.00;97089.91;4997356;28;20296;-82
2024/03/09 01:53:42;;;;;;;12.97;7.33;;;;;;;2.39;100.00;97087.44;4993607;28;20243;-80
2024/03/09 01:56:11;;;;;;;14.73;8.07;;;;;;;2.38;100.00;97085.75;4993139;28;20205;-82
2024/03/09 01:58:41;;;;;;;12.23;7.93;;;;;;;2.34;100.00;97084.22;4987149;28;20730;-81
2024/03/09 02:01:21;;;;;;;14.80;8.90;;;;;;;2.38;100.00;97079.72;4982453;28;20744;-80
2024/03/09 02:03:52;;;;;;;17.60;8.10;;;;;;;2.39;100.00;97077.00;4981560;28;20707;-82
2024/03/09 02:06:21;;;;;;;12.97;7.20;;;;;;;2.47;100.00;97077.47;4982257;28;20257;-79
2024/03/09 02:08:47;;;;;;;13.90;7.93;;;;;;;2.48;100.00;97068.72;4982157;28;20207;-79
2024/03/09 02:11:14;;;;;;;15.23;8.17;;;;;;;2.47;100.00;97072.25;4981002;28;20639;-79
2024/03/09 02:13:41;;;;;;;14.57;8.10;;;;;;;2.52;100.00;97072.81;4981375;28;20222;-81
2024/03/09 02:16:07;;;;;;;11.73;7.30;;;;;;;2.50;100.00;97064.25;4984231;28;20212;-81
2024/03/09 02:18:34;;;;;;;14.70;7.80;;;;;;;2.50;100.00;97074.69;4985626;28;20274;-81
2024/03/09 02:21:03;;;;;;;13.53;8.00;;;;;;;2.51;100.00;97062.50;4985369;28;20602;-80
2024/03/09 02:23:31;;;;;;;17.40;9.17;;;;;;;2.54;100.00;97057.94;4984786;28;20214;-79
2024/03/09 02:26:00;;;;;;;12.57;7.90;;;;;;;2.61;100.00;97061.91;4985935;28;20206;-80
2024/03/09 02:28:27;;;;;;;14.30;8.83;;;;;;;2.60;100.00;97055.00;4985841;28;20213;-81
2024/03/09 02:30:54;;;;;;;14.70;8.90;;;;;;;2.61;100.00;97051.47;4984658;28;20267;-81
2024/03/09 02:33:21;;;;;;;16.43;8.97;;;;;;;2.66;100.00;97053.81;4982977;28;20822;-79
2024/03/09 02:35:48;;;;;;;15.63;8.83;;;;;;;2.74;100.00;97056.84;4999942;28;20277;-79
2024/03/09 02:38:14;;;;;;;15.57;8.80;;;;;;;2.78;100.00;97048.78;4984719;28;20215;-80
2024/03/09 02:40:43;;;;;;;15.23;9.13;;;;;;;2.82;100.00;97050.28;4984284;28;20239;-80
2024/03/09 02:43:12;;;;;;;15.37;8.80;;;;;;;2.80;100.00;97040.84;4985283;28;20214;-81
2024/03/09 02:45:39;;;;;;;14.80;8.37;;;;;;;2.90;100.00;97037.66;4983319;28;20210;-81
2024/03/09 02:48:07;;;;;;;15.47;9.57;;;;;;;2.91;100.00;97041.94;4984288;28;20237;-81
2024/03/09 02:50:33;;;;;;;15.93;9.37;;;;;;;2.88;100.00;97044.72;4984148;28;20245;-81
2024/03/09 02:53:00;;;;;;;18.70;9.03;;;;;;;2.89;100.00;97046.38;4986054;28;20211;-81
2024/03/09 02:55:27;;;;;;;14.07;8.20;;;;;;;2.88;100.00;97043.88;4983616;28;20224;-80
2024/03/09 02:57:54;;;;;;;14.90;8.50;;;;;;;2.87;100.00;97047.44;5012141;28;20284;-80
2024/03/09 03:00:26;;;;;;;14.23;7.97;;;;;;;2.90;100.00;97042.03;4997653;28;20232;-80
2024/03/09 03:05:41;;;;;;;13.23;8.10;;;;;;;2.81;100.00;97043.38;4991903;28;20215;-82
2024/03/09 03:08:07;;;;;;;12.93;7.63;;;;;;;2.83;100.00;97046.75;4988234;28;20299;-82
2024/03/09 03:10:34;;;;;;;13.80;7.90;;;;;;;2.86;100.00;97036.13;4984005;28;20865;-81
2024/03/09 03:13:00;;;;;;;16.77;9.17;;;;;;;2.93;100.00;97032.25;4985710;28;20214;-81
2024/03/09 03:15:28;;;;;;;14.67;8.73;;;;;;;2.99;100.00;97021.47;4983446;28;20606;-81
2024/03/09 03:17:55;;;;;;;15.23;8.93;;;;;;;3.10;100.00;97013.00;4983426;28;20223;-82
2024/03/09 03:20:21;;;;;;;14.80;8.47;;;;;;;3.08;100.00;97005.28;4982176;28;20242;-81
2024/03/09 03:22:49;;;;;;;14.10;8.47;;;;;;;3.10;100.00;96976.47;4982457;28;20212;-81
2024/03/09 03:25:16;;;;;;;14.10;8.70;;;;;;;3.14;100.00;96968.41;4984128;28;20217;-80
2024/03/09 03:27:45;;;;;;;12.57;8.23;;;;;;;3.15;100.00;96979.66;4982119;28;20217;-80
2024/03/09 03:30:15;;;;;;;16.57;8.57;;;;;;;3.01;100.00;96997.91;4981917;28;20216;-81
2024/03/09 03:32:43;;;;;;;13.00;8.70;;;;;;;2.92;100.00;96996.66;4981314;28;20327;-81
2024/03/09 03:35:11;;;;;;;12.63;7.80;;;;;;;2.92;100.00;96996.66;4979486;28;20307;-81
2024/03/09 03:37:38;;;;;;;12.50;7.87;;;;;;;2.95;100.00;96998.25;4979088;28;20212;-82
2024/03/09 03:40:06;;;;;;;16.40;9.03;;;;;;;2.98;100.00;97009.34;4978099;28;20584;-81
2024/03/09 03:42:33;;;;;;;13.47;8.13;;;;;;;2.98;100.00;96998.91;4977148;28;20566;-82
2024/03/09 03:45:00;;;;;;;15.13;8.03;;;;;;;3.01;100.00;97009.16;4979138;28;20221;-81
2024/03/09 03:47:28;;;;;;;16.17;8.47;;;;;;;3.00;100.00;97007.47;4980137;28;20299;-81
2024/03/09 03:49:56;;;;;;;14.93;8.23;;;;;;;3.08;100.00;97000.06;4980593;28;20217;-80
2024/03/09 03:52:23;;;;;;;13.73;7.87;;;;;;;3.13;100.00;97005.03;4979978;28;20239;-81
2024/03/09 03:54:49;;;;;;;11.47;7.63;;;;;;;3.23;100.00;96993.09;4979922;28;20219;-81
2024/03/09 03:57:16;;;;;;;14.17;8.77;;;;;;;3.22;100.00;96981.84;4980979;28;20208;-81
2024/03/09 03:59:43;;;;;;;12.87;8.10;;;;;;;3.20;100.00;96977.63;4982632;28;20209;-82
2024/03/09 04:02:10;;;;;;;12.77;8.07;;;;;;;3.12;100.00;96966.81;4981989;28;20235;-82
2024/03/09 04:04:37;;;;;;;16.37;9.13;;;;;;;3.06;100.00;96964.56;4995113;28;20224;-82
2024/03/09 04:07:05;;;;;;;17.70;9.50;;;;;;;2.90;100.00;96969.81;4995988;28;20244;-80
2024/03/09 04:09:32;;;;;;;15.33;8.93;;;;;;;2.83;100.00;96968.50;4978838;28;20219;-80
2024/03/09 04:12:00;;;;;;;16.87;8.80;;;;;;;2.83;100.00;96963.28;4976717;28;20286;-81
2024/03/09 04:14:27;;;;;;;16.77;9.40;;;;;;;2.91;100.00;96970.63;4978499;28;20212;-81
2024/03/09 04:16:54;;;;;;;14.53;8.73;;;;;;;2.85;100.00;96969.22;4980408;28;20218;-81
2024/03/09 04:19:20;;;;;;;17.33;8.97;;;;;;;2.90;100.00;96967.22;4989309;28;20311;-81
2024/03/09 04:21:47;;;;;;;15.20;8.80;;;;;;;3.03;100.00;96959.50;4991028;28;20238;-81
2024/03/09 04:24:15;;;;;;;15.93;8.60;;;;;;;3.06;100.00;96960.16;4990015;28;20578;-82
2024/03/09 04:26:42;;;;;;;18.00;9.53;;;;;;;2.99;100.00;96958.84;4990580;28;20612;-81
2024/03/09 04:29:10;;;;;;;17.23;9.53;;;;;;;2.94;100.00;96960.03;4987585;28;20219;-81
2024/03/09 04:31:37;;;;;;;17.00;9.40;;;;;;;2.95;100.00;96946.88;4987868;28;20238;-82
2024/03/09 04:34:10;;;;;;;16.40;9.67;;;;;;;2.99;100.00;96945.78;4988454;28;20236;-81
2024/03/09 04:36:37;;;;;;;15.63;8.83;;;;;;;3.04;100.00;96935.94;4984530;28;20197;-81
2024/03/09 04:39:04;;;;;;;19.17;10.13;;;;;;;3.00;100.00;96931.81;4983590;28;20213;-81
2024/03/09 04:41:32;;;;;;;17.90;10.20;;;;;;;2.80;100.00;96937.34;4984013;28;20238;-81
2024/03/09 04:44:00;;;;;;;16.97;9.67;;;;;;;2.86;100.00;96916.13;4985639;28;20213;-81
2024/03/09 04:46:29;;;;;;;16.50;9.10;;;;;;;2.92;100.00;96923.59;4985080;28;20210;-80
2024/03/09 04:48:55;;;;;;;17.57;9.00;;;;;;;2.80;100.00;96937.34;4982606;28;20213;-79
2024/03/09 04:51:22;;;;;;;17.40;9.70;;;;;;;2.82;100.00;96932.03;4982253;28;20252;-81
2024/03/09 04:53:49;;;;;;;21.17;10.20;;;;;;;3.00;100.00;96923.97;4981378;28;20237;-81
2024/03/09 04:56:16;;;;;;;18.10;9.83;;;;;;;2.98;100.00;96919.78;4981940;28;20216;-82
2024/03/09 04:58:44;;;;;;;18.07;10.10;;;;;;;2.93;100.00;96916.63;4979652;28;20372;-81
2024/03/09 05:01:10;;;;;;;17.63;9.57;;;;;;;3.00;100.00;96913.53;4977892;28;20227;-81
2024/03/09 05:03:37;;;;;;;16.10;9.37;;;;;;;2.99;100.00;96906.63;4979714;28;20214;-82
2024/03/09 05:06:06;;;;;;;16.03;9.50;;;;;;;3.04;100.00;96901.13;4980606;28;20208;-82
2024/03/09 05:08:33;;;;;;;19.23;10.00;;;;;;;3.03;100.00;96895.09;4980164;28;20640;-82
2024/03/09 05:10:59;;;;;;;14.47;8.97;;;;;;;3.02;100.00;96887.34;4985900;28;20244;-81
2024/03/09 05:13:26;;;;;;;18.97;10.17;;;;;;;3.05;100.00;96881.97;4994517;28;20301;-80
2024/03/09 05:15:54;;;;;;;15.93;9.43;;;;;;;3.07;100.00;96869.66;4997065;28;20207;-81
2024/03/09 05:18:21;;;;;;;17.90;8.77;;;;;;;3.08;100.00;96869.56;4996922;28;20247;-81
2024/03/09 05:20:47;;;;;;;18.97;9.90;;;;;;;3.10;100.00;96872.06;4992901;28;20256;-82
2024/03/09 05:23:14;;;;;;;15.80;9.30;;;;;;;3.10;100.00;96872.94;4990282;28;20215;-81
2024/03/09 05:25:41;;;;;;;17.73;9.97;;;;;;;3.05;100.00;96874.97;4989444;28;20690;-81
2024/03/09 05:28:12;;;;;;;19.33;9.93;;;;;;;3.06;100.00;96863.59;4989155;28;20305;-81
2024/03/09 05:30:38;;;;;;;18.97;10.30;;;;;;;3.02;100.00;96867.34;4989405;28;20264;-82
2024/03/09 05:33:07;;;;;;;15.70;9.80;;;;;;;2.95;100.00;96873.81;4988729;28;20605;-82
2024/03/09 05:35:35;;;;;;;19.80;10.20;;;;;;;2.87;100.00;96872.63;4989126;28;20211;-81
2024/03/09 05:38:04;;;;;;;19.17;9.87;;;;;;;2.82;100.00;96872.88;4988254;28;20214;-82
2024/03/09 05:40:31;;;;;;;19.47;10.67;;;;;;;2.84;100.00;96885.81;4989034;28;20235;-82
2024/03/09 05:43:04;;;;;;;18.93;10.63;;;;;;;2.83;100.00;96895.44;4989190;28;20239;-81
2024/03/09 05:45:30;;;;;;;21.23;11.03;;;;;;;2.92;100.00;96894.03;4990267;28;20223;-82
2024/03/09 05:47:58;;;;;;;18.63;10.73;;;;;;;2.92;100.00;96894.88;4989831;28;20207;-81
2024/03/09 05:50:29;;;;;;;19.27;10.00;;;;;;;3.05;100.00;96890.63;4991998;28;20263;-81
2024/03/09 05:52:57;;;;;;;18.87;10.97;;;;;;;3.19;100.00;96877.59;4994852;28;20725;-82
2024/03/09 05:55:25;;;;;;;17.50;9.97;;;;;;;3.19;100.00;96874.97;4994991;28;20421;-81
2024/03/09 05:57:54;;;;;;;19.40;10.13;;;;;;;3.13;100.00;96877.94;4994432;28;20215;-80
2024/03/09 06:00:24;;;;;;;16.37;9.43;;;;;;;3.11;100.00;96882.44;4994974;28;20686;-82
2024/03/09 06:02:51;;;;;;;18.73;9.60;;;;;;;2.97;100.00;96892.00;5009153;28;20555;-82
2024/03/09 06:05:19;;;;;;;18.10;9.70;;;;;;;2.88;100.00;96882.94;4994462;28;20233;-81
2024/03/09 06:07:49;;;;;;;16.47;9.43;;;;;;;2.80;100.00;96876.50;4994300;28;20241;-82
2024/03/09 06:10:18;;;;;;;17.63;9.83;;;;;;;2.79;100.00;96883.50;4993622;28;20211;-82
2024/03/09 06:12:46;;;;;;;20.13;11.33;;;;;;;2.82;100.00;96878.09;4996630;28;20247;-82
2024/03/09 06:15:15;;;;;;;19.57;9.53;;;;;;;2.80;100.00;96897.34;4997822;28;20249;-82
2024/03/09 06:17:43;;;;;;;19.70;10.50;;;;;;;2.72;100.00;96886.53;5014552;28;20212;-81
2024/03/09 06:20:13;;;;;;;16.00;9.57;;;;;;;2.69;100.00;96891.94;4998975;28;20197;-81
2024/03/09 06:22:42;;;;;;;16.30;9.13;;;;;;;2.67;100.00;96894.63;4999059;28;20214;-80
2024/03/09 06:25:12;;;;;;;21.83;11.03;;;;;;;2.72;100.00;96891.75;5015442;28;20230;-81
2024/03/09 06:27:38;;;;;;;21.20;10.77;;;;;;;2.79;100.00;96893.06;4999245;28;20272;-81
2024/03/09 06:30:08;;;;;;;20.43;10.73;;;;;;;2.86;100.00;96890.03;4996751;28;20283;-82
2024/03/09 06:32:35;;;;;;;21.20;10.90;;;;;;;2.86;100.00;96895.25;4992278;28;20245;-82
2024/03/09 06:35:02;;;;;;;20.43;11.37;;;;;;;2.84;100.00;96891.91;4989303;28;20198;-81
2024/03/09 06:37:29;;;;;;;19.80;10.27;;;;;;;2.79;100.00;96893.94;4991512;28;20618;-81
2024/03/09 06:39:56;;;;;;;18.13;10.93;;;;;;;2.83;100.00;96889.38;4996842;28;20238;-81
2024/03/09 06:42:25;;;;;;;20.33;9.77;;;;;;;2.78;100.00;96887.03;4992352;28;20265;-81
2024/03/09 06:44:52;;;;;;;20.23;11.07;;;;;;;2.77;100.00;96885.38;4994078;28;20218;-82
2024/03/09 06:47:18;;;;;;;21.03;11.27;;;;;;;2.87;100.00;96885.66;4991991;28;20210;-82
2024/03/09 06:49:45;;;;;;;23.23;11.93;;;;;;;3.01;100.00;96899.56;4991936;28;20276;-81
2024/03/09 06:52:12;;;;;;;23.40;12.73;;;;;;;3.06;100.00;96894.91;4987729;28;20237;-80
2024/03/09 06:54:39;;;;;;;22.33;12.03;;;;;;;3.13;100.00;96901.44;4979643;28;20215;-79
2024/03/09 06:57:09;;;;;;;21.97;11.43;;;;;;;3.10;100.00;96896.41;4992016;28;20218;-81
2024/03/09 06:59:40;;;;;;;20.57;11.53;;;;;;;3.16;100.00;96903.88;4992046;28;20217;-80
2024/03/09 07:02:07;;;;;;;21.17;10.87;;;;;;;3.22;100.00;96902.66;4991739;28;20257;-82
2024/03/09 07:04:34;;;;;;;18.70;11.03;;;;;;;3.28;100.00;96907.53;4990221;28;20302;-81
2024/03/09 07:07:00;;;;;;;21.77;11.27;;;;;;;3.35;100.00;96912.28;4985224;28;20306;-79
2024/03/09 07:09:27;;;;;;;20.83;11.70;;;;;;;3.43;100.00;96915.28;4983865;28;20214;-82
2024/03/09 07:11:53;;;;;;;21.73;12.10;;;;;;;3.52;100.00;96922.56;4983998;28;20246;-82
2024/03/09 07:14:21;;;;;;;20.30;10.87;;;;;;;3.55;100.00;96927.59;4994092;28;20217;-82
2024/03/09 07:16:49;;;;;;;21.30;10.90;;;;;;;3.70;100.00;96920.59;4995046;28;20222;-82
2024/03/09 07:19:16;;;;;;;20.83;11.67;;;;;;;3.79;100.00;96914.81;4994267;28;20219;-82
2024/03/09 07:21:43;;;;;;;18.87;10.63;;;;;;;3.90;100.00;96915.81;4992200;28;20236;-83
2024/03/09 07:24:09;;;;;;;16.90;10.40;;;;;;;3.97;100.00;96924.13;4992270;28;20283;-83
2024/03/09 07:26:37;;;;;;;20.60;11.23;;;;;;;4.16;100.00;96922.88;4995055;28;20284;-82
2024/03/09 07:29:03;;;;;;;20.13;11.23;;;;;;;4.32;100.00;96909.66;4991174;28;20217;-80
2024/03/09 07:31:30;;;;;;;21.30;11.07;;;;;;;4.34;100.00;96903.41;4986426;28;20711;-83
2024/03/09 07:33:58;;;;;;;20.27;11.77;;;;;;;4.44;100.00;96907.13;4980829;28;20243;-82
2024/03/09 07:36:25;;;;;;;19.60;10.77;;;;;;;4.45;100.00;96906.16;4980515;28;20218;-82
2024/03/09 07:38:51;;;;;;;20.83;10.87;;;;;;;4.39;100.00;96896.09;4981490;28;20214;-81
2024/03/09 07:41:20;;;;;;;20.77;11.37;;;;;;;4.43;100.00;96900.22;4985539;28;20229;-81
2024/03/09 07:43:47;;;;;;;19.63;11.60;;;;;;;4.63;100.00;96904.97;4989792;28;20316;-81
2024/03/09 07:46:14;;;;;;;21.33;11.27;;;;;;;4.75;100.00;96898.09;4985184;28;20220;-79
2024/03/09 07:48:41;;;;;;;21.37;11.20;;;;;;;4.88;100.00;96899.00;4986036;28;20205;-81
2024/03/09 07:51:10;;;;;;;20.57;11.47;;;;;;;4.98;100.00;96898.28;4986642;28;20229;-80
2024/03/09 07:53:38;;;;;;;17.37;10.67;;;;;;;4.97;100.00;96901.84;4985335;28;20226;-80
2024/03/09 07:56:05;;;;;;;18.77;10.53;;;;;;;5.06;100.00;96903.84;4990471;28;20219;-82
2024/03/09 07:58:32;;;;;;;18.53;10.80;;;;;;;5.13;100.00;96902.47;4989244;28;20302;-83
2024/03/09 08:00:58;;;;;;;16.47;10.03;;;;;;;5.22;100.00;96899.25;4990177;28;20303;-82
2024/03/09 08:03:25;;;;;;;18.53;11.50;;;;;;;5.27;100.00;96904.19;4990093;28;20218;-81
2024/03/09 08:05:51;;;;;;;19.67;10.63;;;;;;;5.38;100.00;96899.88;4991876;28;20265;-80
2024/03/09 08:08:19;;;;;;;18.23;10.57;;;;;;;5.40;100.00;96895.38;4991959;28;20681;-81
2024/03/09 08:10:52;;;;;;;16.63;9.50;;;;;;;5.49;100.00;96901.78;4989370;28;20235;-81
2024/03/09 08:13:19;;;;;;;20.80;11.67;;;;;;;5.58;100.00;96902.00;4991819;28;20233;-83
2024/03/09 08:15:46;;;;;;;17.63;10.23;;;;;;;5.63;100.00;96912.97;4990634;28;20222;-82
2024/03/09 08:18:12;;;;;;;18.03;10.37;;;;;;;5.69;100.00;96909.94;4990515;28;20313;-82
2024/03/09 08:20:39;;;;;;;16.43;9.83;;;;;;;5.77;100.00;96910.25;4991277;28;20741;-82
2024/03/09 08:23:06;;;;;;;16.93;10.57;;;;;;;5.79;100.00;96894.41;4991433;28;20213;-82
2024/03/09 08:25:34;;;;;;;17.80;10.40;;;;;;;5.94;100.00;96894.22;4991217;28;20221;-82
2024/03/09 08:28:00;;;;;;;18.63;10.03;;;;;;;6.09;100.00;96882.63;4991583;28;20282;-82
2024/03/09 08:30:27;;;;;;;17.47;10.23;;;;;;;6.17;100.00;96879.47;4992756;28;20244;-80
2024/03/09 08:32:58;;;;;;;19.13;10.00;;;;;;;6.33;100.00;96870.38;4989745;28;20245;-82
2024/03/09 08:35:27;;;;;;;16.77;9.57;;;;;;;6.47;100.00;96867.59;4991615;28;20233;-82
2024/03/09 08:37:53;;;;;;;18.87;9.73;;;;;;;6.57;100.00;96858.09;4990196;28;20243;-83
2024/03/09 08:40:23;;;;;;;16.07;9.33;;;;;;;6.57;100.00;96855.47;4990008;28;20245;-82
2024/03/09 08:42:51;;;;;;;15.73;9.47;;;;;;;6.64;100.00;96848.81;4990015;28;20420;-83
2024/03/09 08:45:20;;;;;;;18.67;10.83;;;;;;;6.82;100.00;96854.50;4989849;28;20215;-82
2024/03/09 08:47:46;;;;;;;16.73;9.97;;;;;;;6.87;100.00;96850.59;4988859;28;20238;-83
2024/03/09 08:50:13;;;;;;;17.20;9.50;;;;;;;6.98;100.00;96848.00;4988857;28;20295;-81
2024/03/09 08:52:40;;;;;;;17.47;10.13;;;;;;;7.09;99.53;96834.06;4976199;28;20318;-80
2024/03/09 08:55:10;;;;;;;18.13;10.07;;;;;;;7.32;100.00;96850.56;4975653;28;20722;-79
2024/03/09 08:57:37;;;;;;;17.13;10.40;;;;;;;7.41;100.00;96852.47;4975866;28;20306;-80
2024/03/09 09:00:08;;;;;;;18.67;10.47;;;;;;;7.60;100.00;96858.00;4977078;28;20214;-80
2024/03/09 09:02:37;;;;;;;16.43;9.77;;;;;;;7.70;99.51;96843.19;4978427;28;20205;-81
2024/03/09 09:05:11;;;;;;;15.77;9.37;;;;;;;7.78;97.66;96834.72;4982872;28;20211;-79
2024/03/09 09:07:38;;;;;;;18.97;10.40;;;;;;;7.95;100.00;96847.38;4982362;28;20214;-80
2024/03/09 09:10:07;;;;;;;20.73;11.03;;;;;;;8.25;100.00;96844.94;4982760;28;20705;-81
2024/03/09 09:12:34;;;;;;;15.17;9.50;;;;;;;8.27;96.11;96822.81;4987183;28;20580;-82
2024/03/09 09:15:01;;;;;;;16.30;10.27;;;;;;;8.39;95.92;96818.38;4991230;28;20225;-82
2024/03/09 09:17:29;;;;;;;18.40;10.70;;;;;;;8.58;96.35;96823.81;4992093;28;20207;-81
2024/03/09 09:19:55;;;;;;;18.03;10.43;;;;;;;8.65;92.64;96802.09;4988598;28;20242;-82
2024/03/09 09:22:22;;;;;;;17.33;10.23;;;;;;;8.69;92.20;96795.59;4989583;28;20342;-82
2024/03/09 09:24:50;;;;;;;17.17;9.90;;;;;;;8.64;89.23;96774.06;4987596;28;20266;-81
2024/03/09 09:27:18;;;;;;;18.87;10.80;;;;;;;8.74;91.05;96787.31;4990537;28;20233;-81
2024/03/09 09:29:45;;;;;;;14.63;9.43;;;;;;;8.72;86.61;96771.66;4990801;28;20228;-80
2024/03/09 09:32:11;;;;;;;19.03;11.00;;;;;;;8.73;90.47;96783.88;4990066;28;20300;-80
2024/03/09 09:34:40;;;;;;;15.83;10.33;;;;;;;8.81;89.38;96781.41;4992481;28;20207;-79
2024/03/09 09:37:12;;;;;;;15.63;9.87;;;;;;;8.87;90.13;96785.34;4995431;28;20266;-81
2024/03/09 09:39:38;;;;;;;15.97;11.07;;;;;;;8.95;88.81;96775.84;4996566;28;20659;-81
2024/03/09 09:42:05;;;;;;;17.50;10.23;;;;;;;9.08;87.87;96767.72;4990359;28;20239;-81
2024/03/09 09:44:32;;;;;;;16.97;10.07;;;;;;;9.05;88.44;96775.91;4987636;28;20212;-79
2024/03/09 09:46:59;;;;;;;16.53;10.17;;;;;;;9.04;87.09;96750.50;4989168;28;20306;-80
2024/03/09 09:49:27;;;;;;;14.50;9.63;;;;;;;9.16;87.76;96752.09;4984831;28;20215;-80
2024/03/09 09:51:56;;;;;;;17.20;10.47;;;;;;;9.27;88.02;96752.88;4992417;28;20236;-79
2024/03/09 09:54:26;;;;;;;15.67;9.53;;;;;;;9.44;89.32;96760.16;4985152;28;20325;-80
2024/03/09 09:56:54;;;;;;;16.03;10.83;;;;;;;9.61;87.29;96742.88;4982648;28;20222;-80
2024/03/09 09:59:20;;;;;;;17.60;10.17;;;;;;;9.63;87.40;96740.94;4981687;28;20239;-79
2024/03/09 10:01:47;;;;;;;17.73;10.30;;;;;;;9.72;85.82;96727.78;4981166;28;20242;-81
2024/03/09 10:04:16;;;;;;;17.55;11.60;;;;;;;9.67;82.42;96710.69;4989838;28;20435;-81
2024/03/09 10:06:43;;;;;;;17.03;10.90;;;;;;;9.57;83.05;96712.44;4986507;28;20247;-80
2024/03/09 10:09:11;;;;;;;18.17;11.00;;;;;;;9.63;84.75;96723.31;4987511;28;20217;-79
2024/03/09 10:11:38;;;;;;;15.67;9.60;;;;;;;9.72;84.86;96726.94;4985852;28;20238;-79
2024/03/09 10:14:05;;;;;;;17.23;10.83;;;;;;;9.83;83.34;96710.97;4986883;28;20240;-80
2024/03/09 10:16:33;;;;;;;15.17;10.47;;;;;;;9.88;80.57;96706.97;4986244;28;20215;-79
2024/03/09 10:19:00;;;;;;;16.63;10.33;;;;;;;9.94;79.93;96710.88;4985012;28;20276;-80
2024/03/09 10:21:29;;;;;;;16.90;11.30;;;;;;;10.02;81.32;96718.94;4977590;28;20782;-81
2024/03/09 10:24:02;;;;;;;16.30;10.20;;;;;;;10.29;84.44;96737.63;4978314;28;20220;-81
2024/03/09 10:26:30;;;;;;;15.57;9.63;;;;;;;10.47;82.42;96725.41;4978857;28;20224;-86
2024/03/09 10:28:58;;;;;;;13.87;9.27;;;;;;;10.83;85.11;96745.81;4979960;28;20302;-81
2024/03/09 10:31:25;;;;;;;15.03;9.30;;;;;;;10.85;80.66;96710.34;4978609;28;20654;-80
2024/03/09 10:33:53;;;;;;;16.33;10.07;;;;;;;10.86;77.45;96679.44;4977851;28;20248;-81
2024/03/09 10:36:21;;;;;;;13.20;9.07;;;;;;;10.86;76.49;96676.81;4980662;28;20211;-80
2024/03/09 10:38:51;;;;;;;13.17;8.20;;;;;;;11.15;81.59;96701.38;4986063;28;20218;-81
2024/03/09 10:41:22;;;;;;;14.57;8.97;;;;;;;11.35;79.22;96687.94;4987675;28;20244;-83
2024/03/09 10:43:52;;;;;;;15.37;8.80;;;;;;;11.57;77.61;96670.84;4986244;28;20243;-83
2024/03/09 10:46:23;;;;;;;12.63;7.27;;;;;;;11.79;76.03;96651.94;4990794;28;20204;-81
2024/03/09 10:48:52;;;;;;;11.53;7.80;;;;;;;11.97;75.28;96652.78;4992839;28;20667;-82
2024/03/09 10:51:28;;;;;;;12.13;7.40;;;;;;;12.09;74.18;96638.34;4991554;28;20237;-80
2024/03/09 10:54:06;;;;;;;12.53;7.83;;;;;;;12.19;73.64;96623.22;4988691;28;20239;-82
2024/03/09 10:56:33;;;;;;;11.10;7.47;;;;;;;12.27;70.08;96602.06;4988711;28;20226;-83
2024/03/09 10:59:04;;;;;;;11.03;7.30;;;;;;;12.38;72.43;96620.38;4986085;28;20210;-82
2024/03/09 11:01:31;;;;;;;11.60;7.13;;;;;;;12.49;73.87;96622.81;4979151;28;20229;-82
2024/03/09 11:03:59;;;;;;;12.17;6.80;;;;;;;12.59;70.55;96594.41;4979632;28;20207;-78
2024/03/09 11:06:28;;;;;;;14.40;8.57;;;;;;;12.55;68.68;96572.69;4977285;28;20229;-79
2024/03/09 11:08:59;;;;;;;11.80;7.30;;;;;;;12.56;71.09;96603.47;4977522;28;20222;-78
2024/03/09 11:11:31;;;;;;;12.93;8.50;;;;;;;12.60;72.50;96615.41;4979771;28;20325;-79
2024/03/09 11:14:03;;;;;;;11.93;8.07;;;;;;;12.63;70.08;96590.44;4978200;28;20262;-78
2024/03/09 11:16:30;;;;;;;13.70;8.30;;;;;;;12.62;69.71;96589.63;4977703;28;20269;-80
2024/03/09 11:18:57;;;;;;;11.80;8.43;;;;;;;12.71;70.81;96595.81;4981324;28;20472;-79
2024/03/09 11:21:29;;;;;;;11.65;8.38;;;;;;;12.90;68.68;96575.19;4981829;28;20506;-80
2024/03/09 11:23:59;;;;;;;11.30;7.47;;;;;;;12.88;65.06;96536.56;4983215;28;20238;-80
2024/03/09 11:26:26;;;;;;;8.77;5.70;;;;;;;13.00;65.29;96553.88;4986192;28;20330;-81
2024/03/09 11:28:55;;;;;;;8.07;5.57;;;;;;;13.20;65.30;96555.31;4982818;28;20748;-80